Time;durP1;ratioP1;P1;durP2;ratioP2;P2;SDS_P1;SDS_P2;PMS_P1;PMS_P2;Temp;Humidity;BMP_temperature;BMP_pressure;BME280_temperature;BME280_humidity;BME280_pressure;Samples;Min_cycle;Max_cycle;Signal;HPM_P1;HPM_P2
2021/10/31 00:36:06;;;;;;;;;;;;;;;;;;;;;
2021/10/31 00:39:06;;;;;;;877.73;804.03;;;10.60;99.90;;;;;;5933920;24;20500;-84
2021/10/31 00:42:36;;;;;;;;;;;;;;;;;;;;;
2021/10/31 00:57:52;;;;;;;;;;;;;;;;;;;;;
2021/10/31 01:07:08;;;;;;;868.70;793.10;;;10.20;99.90;;;;;;6017316;23;20426;-85
2021/10/31 01:10:16;;;;;;;858.30;783.83;;;10.20;99.90;;;;;;6066451;23;20960;-84
2021/10/31 01:13:34;;;;;;;869.73;794.00;;;10.20;99.90;;;;;;6066840;23;20483;-85
2021/10/31 01:16:24;;;;;;;862.90;788.07;;;10.30;99.90;;;;;;6048639;23;21015;-84
2021/10/31 01:19:35;;;;;;;871.57;797.97;;;10.50;99.90;;;;;;6076246;23;20476;-84
2021/10/31 01:22:42;;;;;;;871.27;798.87;;;10.30;99.90;;;;;;6133980;23;20805;-84
2021/10/31 01:25:48;;;;;;;862.47;791.87;;;10.40;99.90;;;;;;6129689;23;20439;-84
2021/10/31 01:29:00;;;;;;;863.53;794.00;;;10.40;99.90;;;;;;6134511;23;20411;-84
2021/10/31 01:32:30;;;;;;;;;;;;;;;;;;;;;
2021/10/31 01:35:35;;;;;;;;;;;;;;;;;;;;;
2021/10/31 01:38:26;;;;;;;866.23;798.40;;;10.50;99.90;;;;;;5966661;24;20446;-85
2021/10/31 01:41:32;;;;;;;870.90;802.60;;;10.40;99.90;;;;;;5981389;24;20419;-84
2021/10/31 01:44:57;;;;;;;;;;;;;;;;;;;;;
2021/10/31 01:48:19;;;;;;;;;;;;;;;;;;;;;
2021/10/31 01:51:32;;;;;;;917.27;842.03;;;9.90;99.90;;;;;;6124232;23;20494;-84
2021/10/31 01:54:51;;;;;;;;;;;;;;;;;;;;;
2021/10/31 02:01:13;;;;;;;;;;;;;;;;;;;;;
2021/10/31 02:04:14;;;;;;;;;;;;;;;;;;;;;
2021/10/31 02:07:14;;;;;;;909.90;830.60;;;9.40;99.90;;;;;;6120556;23;20424;-84
2021/10/31 02:10:16;;;;;;;;;;;;;;;;;;;;;
2021/10/31 02:16:31;;;;;;;924.23;840.30;;;9.20;99.90;;;;;;5986910;24;20786;-85
2021/10/31 02:19:52;;;;;;;;;;;;;;;;;;;;;
2021/10/31 02:23:07;;;;;;;926.23;842.80;;;9.50;99.90;;;;;;5984102;23;20450;-85
2021/10/31 02:26:18;;;;;;;924.57;841.90;;;9.40;99.90;;;;;;6027640;23;20439;-85
2021/10/31 02:45:07;;;;;;;;;;;;;;;;;;;;;
2021/10/31 02:48:17;;;;;;;966.00;880.33;;;9.40;99.90;;;;;;5988642;24;20426;-84
2021/10/31 03:07:15;;;;;;;;;;;;;;;;;;;;;
2021/10/31 03:10:36;;;;;;;;;;;;;;;;;;;;;
2021/10/31 03:23:41;;;;;;;929.50;845.57;;;9.70;99.90;;;;;;5952030;23;20445;-84
2021/10/31 03:29:27;;;;;;;;;;;;;;;;;;;;;
2021/10/31 03:35:58;;;;;;;;;;;;;;;;;;;;;
2021/10/31 03:42:28;;;;;;;;;;;;;;;;;;;;;
2021/10/31 03:45:47;;;;;;;;;;;;;;;;;;;;;
2021/10/31 03:52:13;;;;;;;;;;;;;;;;;;;;;
2021/10/31 03:55:11;;;;;;;;;;;;;;;;;;;;;
2021/10/31 03:58:12;;;;;;;;;;;;;;;;;;;;;
2021/10/31 04:01:10;;;;;;;896.67;824.07;;;10.20;99.90;;;;;;6052448;23;20807;-84
2021/10/31 04:04:19;;;;;;;;;;;;;;;;;;;;;
2021/10/31 04:07:21;;;;;;;;;;;;;;;;;;;;;
2021/10/31 04:10:18;;;;;;;905.57;834.20;;;10.00;99.90;;;;;;6225214;23;20436;-83
2021/10/31 04:12:54;;;;;;;895.30;824.50;;;10.00;99.90;;;;;;6215466;23;20401;-84
2021/10/31 04:15:50;;;;;;;;;;;;;;;;;;;;;
2021/10/31 04:18:23;;;;;;;896.80;826.80;;;9.90;99.90;;;;;;6208279;23;20404;-83
2021/10/31 04:21:42;;;;;;;;;;;;;;;;;;;;;
2021/10/31 04:24:35;;;;;;;889.50;819.90;;;9.80;99.90;;;;;;6214583;23;20539;-84
2021/10/31 04:27:32;;;;;;;;;;;;;;;;;;;;;
2021/10/31 04:33:15;;;;;;;884.13;815.67;;;9.60;99.90;;;;;;6092944;23;20451;-84
2021/10/31 04:35:57;;;;;;;;;;;;;;;;;;;;;
2021/10/31 04:38:33;;;;;;;883.20;814.73;;;9.40;99.90;;;;;;6093783;23;20415;-85
2021/10/31 04:41:10;;;;;;;877.30;808.60;;;9.30;99.90;;;;;;6093965;23;20411;-84
2021/10/31 04:44:10;;;;;;;873.93;802.70;;;9.10;99.90;;;;;;6105244;23;20448;-84
2021/10/31 04:49:51;;;;;;;904.57;830.67;;;9.00;99.90;;;;;;6132599;23;20485;-84
2021/10/31 04:55:28;;;;;;;883.10;808.97;;;9.00;99.90;;;;;;6047603;23;20502;-83
2021/10/31 05:01:23;;;;;;;891.97;814.10;;;8.70;99.90;;;;;;6063441;23;20438;-82
2021/10/31 05:03:51;;;;;;;898.47;820.37;;;8.80;99.90;;;;;;6163882;23;20464;-81
2021/10/31 05:06:18;;;;;;;914.50;835.70;;;8.60;99.90;;;;;;6217279;23;20487;-81
2021/10/31 05:08:45;;;;;;;930.13;851.37;;;8.70;99.90;;;;;;6216506;23;20436;-81
2021/10/31 05:11:11;;;;;;;946.50;865.97;;;8.60;99.90;;;;;;6217159;23;20780;-81
2021/10/31 05:13:39;;;;;;;946.27;866.10;;;8.60;99.90;;;;;;6217227;23;20436;-82
2021/10/31 05:16:22;;;;;;;954.43;873.13;;;8.50;99.90;;;;;;6215807;23;20411;-84
2021/10/31 05:19:42;;;;;;;952.40;870.77;;;8.50;99.90;;;;;;6226661;23;20436;-84
2021/10/31 05:22:14;;;;;;;946.20;864.80;;;8.40;99.90;;;;;;5981146;24;20481;-83
2021/10/31 05:24:47;;;;;;;960.23;878.00;;;8.40;99.90;;;;;;6108299;23;20482;-84
2021/10/31 05:27:32;;;;;;;955.67;870.20;;;8.40;99.90;;;;;;6134418;23;20470;-84
2021/10/31 05:30:07;;;;;;;962.13;875.40;;;8.50;99.90;;;;;;6167524;23;20415;-84
2021/10/31 05:32:52;;;;;;;;;;;;;;;;;;;;;
2021/10/31 05:35:39;;;;;;;965.03;877.80;;;8.50;99.90;;;;;;6209421;23;20938;-84
2021/10/31 05:38:18;;;;;;;968.90;881.27;;;8.60;99.90;;;;;;6226748;23;20404;-84
2021/10/31 05:41:05;;;;;;;962.97;875.07;;;8.60;99.90;;;;;;6226438;23;20469;-84
2021/10/31 05:43:44;;;;;;;;;;;;;;;;;;;;;
2021/10/31 05:46:35;;;;;;;;;;;;;;;;;;;;;
2021/10/31 05:49:51;;;;;;;;;;;;;;;;;;;;;
2021/10/31 05:55:58;;;;;;;977.83;888.97;;;8.90;99.90;;;;;;6045657;23;20424;-85
2021/10/31 06:01:44;;;;;;;;;;;;;;;;;;;;;
2021/10/31 06:04:24;;;;;;;979.60;891.53;;;8.60;99.90;;;;;;6226435;23;20421;-84
2021/10/31 06:07:02;;;;;;;968.60;881.13;;;8.60;99.90;;;;;;6216613;23;20419;-83
2021/10/31 06:09:49;;;;;;;991.00;901.53;;;8.60;99.90;;;;;;6153818;23;20432;-84
2021/10/31 06:13:02;;;;;;;987.77;897.83;;;8.40;99.90;;;;;;6066120;23;20424;-85
2021/10/31 06:19:11;;;;;;;;;;;;;;;;;;;;;
2021/10/31 06:22:32;;;;;;;;;;;;;;;;;;;;;
2021/10/31 06:25:01;;;;;;;981.70;892.70;;;8.70;99.90;;;;;;6094142;23;20456;-84
2021/10/31 06:27:40;;;;;;;;;;;;;;;;;;;;;
2021/10/31 06:30:12;;;;;;;995.60;905.00;;;8.70;99.90;;;;;;6036819;23;20411;-84
2021/10/31 06:36:31;;;;;;;984.00;894.37;;;8.60;99.90;;;;;;6133848;23;20498;-84
2021/10/31 06:39:07;;;;;;;970.33;880.17;;;8.40;99.90;;;;;;6111863;23;20422;-84
2021/10/31 06:41:38;;;;;;;965.10;874.97;;;8.50;99.90;;;;;;6133760;23;20953;-83
2021/10/31 06:44:34;;;;;;;959.83;869.90;;;8.70;99.90;;;;;;6133741;23;20516;-85
2021/10/31 06:47:04;;;;;;;971.17;881.17;;;8.60;99.90;;;;;;6122420;23;20403;-83
2021/10/31 06:49:36;;;;;;;976.10;886.37;;;8.50;99.90;;;;;;6177129;23;20442;-84
2021/10/31 06:52:12;;;;;;;969.57;880.40;;;8.60;99.90;;;;;;6216021;23;20396;-85
2021/10/31 06:54:56;;;;;;;967.63;878.93;;;8.60;99.90;;;;;;6225684;23;20416;-83
2021/10/31 06:57:25;;;;;;;942.00;854.20;;;8.80;99.90;;;;;;6202330;23;20411;-83
2021/10/31 07:00:08;;;;;;;953.20;865.10;;;8.80;99.90;;;;;;6215719;23;20483;-83
2021/10/31 07:03:01;;;;;;;934.23;847.00;;;9.00;99.90;;;;;;6224551;23;20440;-84
2021/10/31 07:31:31;;;;;;;;;;;;;;;;;;;;;
2021/10/31 07:34:12;;;;;;;900.87;817.87;;;9.50;99.90;;;;;;6087645;23;20422;-84
2021/10/31 07:36:52;;;;;;;;;;;;;;;;;;;;;
2021/10/31 07:39:20;;;;;;;869.13;791.33;;;9.50;99.90;;;;;;6214915;23;20400;-84
2021/10/31 07:45:40;;;;;;;;;;;;;;;;;;;;;
2021/10/31 07:52:05;;;;;;;;;;;;;;;;;;;;;
2021/10/31 08:31:48;;;;;;;699.70;659.20;;;11.40;99.90;;;;;;6018130;23;20421;-84
2021/10/31 08:38:04;;;;;;;653.53;619.37;;;11.90;99.90;;;;;;5991074;24;20501;-84
2021/10/31 08:40:41;;;;;;;582.57;555.37;;;11.90;99.90;;;;;;6034359;23;20417;-84
2021/10/31 08:43:21;;;;;;;625.57;595.90;;;12.10;99.90;;;;;;6082359;23;20446;-85
2021/10/31 08:45:51;;;;;;;548.97;524.80;;;12.20;99.90;;;;;;6131920;23;20430;-84
2021/10/31 08:48:59;;;;;;;536.60;514.53;;;12.20;99.90;;;;;;6123782;23;20489;-84
2021/10/31 08:51:35;;;;;;;540.83;518.40;;;12.40;99.90;;;;;;5995199;23;20460;-85
2021/10/31 08:54:06;;;;;;;476.53;458.23;;;12.40;99.90;;;;;;6045693;23;21105;-85
2021/10/31 08:56:39;;;;;;;432.73;416.90;;;12.70;99.90;;;;;;6037790;23;20408;-86
2021/10/31 09:02:17;;;;;;;451.63;435.23;;;12.80;99.90;;;;;;5973917;23;20570;-86
2021/10/31 09:04:44;;;;;;;370.20;357.47;;;13.10;99.90;;;;;;6036513;23;20437;-86
2021/10/31 09:07:18;;;;;;;366.60;353.70;;;13.10;99.90;;;;;;6132969;23;20512;-85
2021/10/31 09:09:48;;;;;;;308.23;298.10;;;13.30;99.90;;;;;;6123399;23;20465;-87
2021/10/31 09:12:20;;;;;;;274.57;265.77;;;13.40;99.90;;;;;;6169301;23;20420;-87
2021/10/31 09:14:50;;;;;;;265.07;256.63;;;13.50;99.90;;;;;;6225265;23;20736;-85
2021/10/31 09:30:39;;;;;;;55.83;53.63;;;13.80;99.90;;;;;;6015017;23;20447;-85
2021/10/31 09:33:40;;;;;;;42.60;40.60;;;14.00;99.50;;;;;;6151676;23;20413;-84
2021/10/31 09:39:50;;;;;;;39.10;37.47;;;14.20;98.20;;;;;;5887110;23;20754;-85
2021/10/31 09:50:37;;;;;;;8.93;5.03;;;15.30;92.20;;;;;;5931199;24;20430;-85
2021/10/31 09:56:57;;;;;;;5.97;4.30;;;15.70;85.80;;;;;;5923802;24;20723;-85
2021/10/31 10:24:38;;;;;;;8.47;5.67;;;15.90;82.90;;;;;;5915983;24;21391;-81
2021/10/31 10:27:07;;;;;;;8.33;5.20;;;15.90;84.30;;;;;;6026534;23;20420;-79
2021/10/31 10:29:36;;;;;;;7.63;6.20;;;15.90;83.30;;;;;;6216524;23;20699;-78
2021/10/31 10:32:06;;;;;;;8.63;6.13;;;15.90;84.40;;;;;;6214848;23;20399;-83
2021/10/31 10:38:25;;;;;;;11.30;7.00;;;15.90;84.90;;;;;;6215533;23;20440;-86
2021/10/31 11:09:41;;;;;;;7.57;5.87;;;18.30;71.90;;;;;;5909126;23;20413;-81
2021/10/31 11:12:30;;;;;;;8.43;6.20;;;18.50;70.60;;;;;;6075268;23;20333;-84
2021/10/31 11:28:51;;;;;;;;;;;;;;;;;;;;;
2021/10/31 11:32:04;;;;;;;;;;;;;;;;;;;;;
2021/10/31 11:34:56;;;;;;;8.40;6.53;;;16.80;80.40;;;;;;6152032;23;20175;-82
2021/10/31 11:37:54;;;;;;;9.57;6.23;;;16.90;81.20;;;;;;6153059;23;20409;-82
2021/10/31 11:40:51;;;;;;;;;;;;;;;;;;;;;
2021/10/31 11:46:49;;;;;;;12.13;6.13;;;17.20;79.60;;;;;;6135257;23;20441;-83
2021/10/31 11:49:39;;;;;;;7.80;5.40;;;17.40;78.90;;;;;;6246105;23;20406;-83
2021/10/31 11:53:01;;;;;;;;;;;;;;;;;;;;;
2021/10/31 11:56:00;;;;;;;8.47;5.93;;;17.20;79.60;;;;;;6175341;23;20479;-79
2021/10/31 11:59:05;;;;;;;9.43;6.30;;;17.10;80.50;;;;;;6230307;23;20772;-83
2021/10/31 12:01:41;;;;;;;8.83;5.60;;;17.00;80.60;;;;;;6243256;23;20422;-82
2021/10/31 12:04:12;;;;;;;12.80;6.30;;;16.80;81.60;;;;;;6246152;23;20399;-82
2021/10/31 12:06:41;;;;;;;8.93;6.23;;;16.90;83.00;;;;;;6245900;23;20400;-82
2021/10/31 12:09:22;;;;;;;10.77;7.50;;;17.00;83.30;;;;;;6245926;23;20769;-82
2021/10/31 12:12:19;;;;;;;7.87;6.00;;;16.90;82.50;;;;;;6245653;23;20403;-82
2021/10/31 12:14:57;;;;;;;8.30;6.90;;;17.00;83.30;;;;;;6236540;23;20535;-84
2021/10/31 12:18:03;;;;;;;8.83;7.50;;;16.90;83.30;;;;;;6183657;23;20398;-84
2021/10/31 12:20:53;;;;;;;9.83;6.53;;;16.90;83.20;;;;;;6195381;23;20895;-84
2021/10/31 12:23:24;;;;;;;8.00;7.20;;;16.70;83.10;;;;;;6195419;23;20404;-84
2021/10/31 12:26:25;;;;;;;9.20;6.47;;;16.80;83.20;;;;;;6195024;23;20428;-82
2021/10/31 12:29:10;;;;;;;8.60;6.97;;;16.80;83.20;;;;;;6185420;23;20397;-82
2021/10/31 12:31:39;;;;;;;7.87;7.07;;;16.80;83.20;;;;;;6183869;23;20468;-82
2021/10/31 12:34:17;;;;;;;7.90;7.07;;;16.70;83.70;;;;;;6195617;23;20405;-81
2021/10/31 12:36:57;;;;;;;7.93;7.10;;;16.70;83.10;;;;;;6194978;23;20465;-82
2021/10/31 12:40:09;;;;;;;12.40;7.17;;;16.80;83.20;;;;;;6195251;23;20896;-82
2021/10/31 12:43:12;;;;;;;7.10;6.40;;;16.70;83.10;;;;;;6119801;23;20421;-82
2021/10/31 12:45:46;;;;;;;8.80;7.70;;;16.70;83.10;;;;;;6194347;23;20420;-82
2021/10/31 12:48:14;;;;;;;8.13;7.33;;;16.70;84.30;;;;;;6141507;23;20470;-81
2021/10/31 12:50:51;;;;;;;9.00;8.10;;;16.80;83.90;;;;;;6185424;23;20404;-81
2021/10/31 12:53:20;;;;;;;8.53;7.47;;;16.70;84.20;;;;;;6185407;23;20407;-81
2021/10/31 12:56:03;;;;;;;9.33;8.33;;;16.80;84.90;;;;;;6195051;23;20456;-82
2021/10/31 13:01:40;;;;;;;9.50;8.60;;;16.70;85.50;;;;;;6142083;23;20888;-83
2021/10/31 13:04:10;;;;;;;9.07;8.27;;;16.80;85.10;;;;;;6186051;23;20409;-82
2021/10/31 13:07:04;;;;;;;9.70;8.50;;;16.90;84.00;;;;;;6196932;23;20427;-83
2021/10/31 13:09:31;;;;;;;6.73;6.13;;;17.10;83.50;;;;;;6187128;23;20409;-82
2021/10/31 13:12:04;;;;;;;8.50;7.30;;;17.10;83.40;;;;;;6187088;23;20430;-82
2021/10/31 13:14:33;;;;;;;8.00;7.20;;;17.00;83.30;;;;;;6186854;23;20444;-83
2021/10/31 13:17:24;;;;;;;7.63;6.93;;;16.80;83.20;;;;;;6185407;23;20439;-83
2021/10/31 13:20:10;;;;;;;8.60;7.80;;;16.80;83.80;;;;;;6181975;23;20786;-82
2021/10/31 13:23:02;;;;;;;8.30;7.50;;;16.80;83.90;;;;;;6196950;23;20898;-82
2021/10/31 13:25:53;;;;;;;;;;;;;;;;;;;;;
2021/10/31 13:28:29;;;;;;;10.90;7.93;;;17.10;83.40;;;;;;6158441;23;20441;-82
2021/10/31 13:31:05;;;;;;;16.13;7.57;;;17.10;83.40;;;;;;6185931;23;20431;-82
2021/10/31 13:33:34;;;;;;;8.10;7.30;;;17.20;83.50;;;;;;6196899;23;20408;-82
2021/10/31 13:36:10;;;;;;;7.20;6.50;;;17.30;82.90;;;;;;6196249;23;20451;-82
2021/10/31 13:41:49;;;;;;;6.43;5.10;;;17.30;82.60;;;;;;6196616;23;20405;-82
2021/10/31 13:44:24;;;;;;;7.10;5.70;;;17.20;82.10;;;;;;6196749;23;20492;-82
2021/10/31 13:47:06;;;;;;;7.13;6.47;;;17.00;82.30;;;;;;6185391;23;20484;-83
2021/10/31 13:49:51;;;;;;;6.97;6.20;;;17.00;83.30;;;;;;6180039;23;20466;-82
2021/10/31 13:52:44;;;;;;;8.13;7.33;;;16.90;83.30;;;;;;6186824;23;20429;-82
2021/10/31 13:55:19;;;;;;;11.50;10.50;;;16.90;85.20;;;;;;6075685;23;20464;-82
2021/10/31 13:57:48;;;;;;;9.57;8.87;;;16.80;85.80;;;;;;6152058;23;20735;-80
2021/10/31 14:00:18;;;;;;;9.87;9.17;;;16.80;86.60;;;;;;6184389;23;20464;-79
2021/10/31 14:03:03;;;;;;;10.80;9.93;;;16.90;86.90;;;;;;6183660;23;20408;-83
2021/10/31 14:06:21;;;;;;;;;;;;;;;;;;;;;
2021/10/31 14:09:45;;;;;;;6.73;6.13;;;17.00;85.90;;;;;;6003439;23;20416;-83
2021/10/31 14:16:02;;;;;;;8.20;7.40;;;17.00;85.10;;;;;;6064321;23;20475;-82
2021/10/31 14:19:00;;;;;;;10.30;9.50;;;16.80;86.40;;;;;;6158949;23;20424;-82
2021/10/31 14:22:01;;;;;;;13.60;12.70;;;16.80;87.70;;;;;;6180183;23;20421;-82
2021/10/31 14:25:00;;;;;;;12.83;12.03;;;16.70;88.80;;;;;;6186031;23;20399;-82
2021/10/31 14:28:09;;;;;;;15.47;14.57;;;16.50;89.00;;;;;;6196157;23;20411;-83
2021/10/31 14:31:26;;;;;;;;;;;;;;;;;;;;;
2021/10/31 14:37:57;;;;;;;;;;;;;;;;;;;;;
2021/10/31 14:40:43;;;;;;;29.80;28.47;;;16.30;91.20;;;;;;6090126;23;20505;-82
2021/10/31 14:43:39;;;;;;;39.57;37.80;;;16.30;91.60;;;;;;6104412;23;20412;-83
2021/10/31 14:46:42;;;;;;;;;;;;;;;;;;;;;
2021/10/31 14:49:45;;;;;;;54.27;52.13;;;16.10;92.10;;;;;;6098673;23;20903;-82
2021/10/31 14:52:51;;;;;;;62.50;60.03;;;16.10;92.80;;;;;;6195782;23;20463;-82
2021/10/31 14:55:44;;;;;;;;;;;;;;;;;;;;;
2021/10/31 14:58:53;;;;;;;72.50;69.67;;;16.10;93.50;;;;;;6190212;23;20415;-82
2021/10/31 15:01:29;;;;;;;76.07;73.33;;;16.10;93.50;;;;;;6006995;23;20453;-82
2021/10/31 15:06:55;;;;;;;77.70;74.83;;;16.00;93.40;;;;;;6195678;23;20908;-82
2021/10/31 15:09:42;;;;;;;;;;;;;;;;;;;;;
2021/10/31 15:13:06;;;;;;;;;;;;;;;;;;;;;
2021/10/31 15:19:54;;;;;;;;;;;;;;;;;;;;;
2021/10/31 15:37:45;;;;;;;28.07;26.70;;;16.20;92.00;;;;;;5812537;24;20212;-83
2021/10/31 15:41:21;;;;;;;;;;;;;;;;;;;;;
2021/10/31 15:44:20;;;;;;;;;;;;;;;;;;;;;
2021/10/31 15:47:24;;;;;;;;;;;;;;;;;;;;;
2021/10/31 15:49:51;;;;;;;16.93;16.03;;;16.10;91.00;;;;;;5998868;23;20415;-81
2021/10/31 15:53:02;;;;;;;;;;;;;;;;;;;;;
2021/10/31 16:05:22;;;;;;;12.43;11.83;;;16.20;90.10;;;;;;6020676;23;20808;-79
2021/10/31 16:08:02;;;;;;;14.40;13.50;;;16.20;90.10;;;;;;6191802;23;20789;-82
2021/10/31 16:10:37;;;;;;;12.33;11.53;;;16.30;90.30;;;;;;6185602;23;20428;-82
2021/10/31 16:13:10;;;;;;;11.10;10.40;;;16.30;90.10;;;;;;6185650;23;20453;-82
2021/10/31 16:15:41;;;;;;;10.97;10.27;;;16.40;90.00;;;;;;6195114;23;20806;-83
2021/10/31 16:18:13;;;;;;;11.50;10.70;;;16.40;89.90;;;;;;6183904;23;20523;-82
2021/10/31 16:20:59;;;;;;;10.67;10.07;;;16.40;90.00;;;;;;6185312;23;20410;-82
2021/10/31 16:23:26;;;;;;;9.53;8.63;;;16.50;89.60;;;;;;6185131;23;20449;-82
2021/10/31 16:29:03;;;;;;;6.80;6.30;;;16.50;88.20;;;;;;6181513;23;20415;-82
2021/10/31 16:31:35;;;;;;;7.00;6.50;;;16.50;88.10;;;;;;6183878;23;20884;-82
2021/10/31 16:34:04;;;;;;;6.87;6.30;;;16.60;89.30;;;;;;6185473;23;20562;-82
2021/10/31 16:36:49;;;;;;;5.73;5.20;;;16.70;88.20;;;;;;6185177;23;20915;-82
2021/10/31 16:39:18;;;;;;;6.30;5.70;;;16.70;87.40;;;;;;6187061;23;20408;-82
2021/10/31 16:41:46;;;;;;;7.13;6.47;;;16.70;87.80;;;;;;6197263;23;20408;-81
2021/10/31 16:44:14;;;;;;;6.07;5.57;;;16.60;88.50;;;;;;6187037;23;20408;-82
2021/10/31 16:46:55;;;;;;;7.00;6.50;;;16.60;87.50;;;;;;6185853;23;20407;-83
2021/10/31 16:49:36;;;;;;;6.20;5.70;;;16.60;88.00;;;;;;6186811;23;20408;-83
2021/10/31 16:52:49;;;;;;;;;;;;;;;;;;;;;
2021/10/31 16:55:22;;;;;;;7.10;6.50;;;16.70;87.90;;;;;;6197365;23;20408;-82
2021/10/31 16:58:00;;;;;;;5.87;5.37;;;16.70;88.00;;;;;;6186677;23;20439;-82
2021/10/31 17:00:36;;;;;;;5.13;4.73;;;16.70;86.70;;;;;;6196939;23;20412;-82
2021/10/31 17:03:06;;;;;;;5.23;4.83;;;16.70;86.60;;;;;;6186168;23;20508;-83
2021/10/31 17:05:39;;;;;;;5.33;4.93;;;16.60;86.50;;;;;;6187034;23;20405;-82
2021/10/31 17:08:12;;;;;;;4.80;4.40;;;16.70;86.40;;;;;;6186830;23;20408;-82
2021/10/31 17:11:19;;;;;;;4.20;3.40;;;16.70;86.00;;;;;;6160154;23;20449;-82
2021/10/31 17:14:22;;;;;;;4.63;4.03;;;16.80;84.90;;;;;;6180802;23;20440;-83
2021/10/31 17:16:50;;;;;;;5.07;3.70;;;16.80;84.70;;;;;;6155668;23;20753;-81
2021/10/31 17:19:17;;;;;;;6.60;6.00;;;16.80;85.50;;;;;;6157424;23;20400;-82
2021/10/31 17:21:45;;;;;;;6.90;6.40;;;16.70;88.30;;;;;;6167272;23;20413;-81
2021/10/31 17:24:15;;;;;;;9.57;8.97;;;16.60;89.70;;;;;;6167165;23;20417;-82
2021/10/31 17:26:45;;;;;;;13.87;12.97;;;16.50;90.20;;;;;;6167211;23;20452;-82
2021/10/31 17:29:13;;;;;;;18.63;17.57;;;16.40;90.50;;;;;;6157279;23;20417;-81
2021/10/31 17:31:41;;;;;;;27.75;26.55;;;16.40;90.20;;;;;;6154834;23;20416;-80
2021/10/31 17:34:10;;;;;;;20.60;19.60;;;16.40;90.20;;;;;;6164435;23;20166;-81
2021/10/31 17:36:39;;;;;;;16.50;15.50;;;16.40;90.20;;;;;;6155483;23;20405;-82
2021/10/31 17:39:12;;;;;;;12.40;11.70;;;16.60;89.40;;;;;;6165518;23;20421;-82
2021/10/31 17:41:39;;;;;;;17.07;16.27;;;16.50;89.30;;;;;;6156752;23;20445;-81
2021/10/31 17:44:27;;;;;;;13.00;12.30;;;16.50;89.00;;;;;;6166463;23;20411;-82
2021/10/31 17:47:08;;;;;;;11.20;10.50;;;16.60;88.90;;;;;;6153308;23;20406;-83
2021/10/31 17:49:46;;;;;;;8.37;7.73;;;16.60;87.20;;;;;;6166514;23;20413;-80
2021/10/31 17:52:16;;;;;;;9.60;8.70;;;16.70;86.20;;;;;;6166345;23;20403;-82
2021/10/31 17:54:43;;;;;;;9.73;9.03;;;16.70;86.90;;;;;;6156781;23;20403;-82
2021/10/31 17:57:13;;;;;;;17.10;16.23;;;16.60;88.30;;;;;;6156840;23;20461;-83
2021/10/31 17:59:46;;;;;;;20.40;19.50;;;16.50;89.60;;;;;;6157292;23;20495;-82
2021/10/31 18:05:50;;;;;;;57.60;55.37;;;16.40;90.20;;;;;;6018684;23;20567;-82
2021/10/31 18:09:13;;;;;;;;;;;;;;;;;;;;;
2021/10/31 18:14:56;;;;;;;136.70;132.20;;;16.30;91.70;;;;;;5962192;24;20440;-82
2021/10/31 18:17:35;;;;;;;146.20;141.30;;;16.30;92.20;;;;;;6093269;23;20488;-82
2021/10/31 18:20:26;;;;;;;;;;;;;;;;;;;;;
2021/10/31 18:26:31;;;;;;;;;;;;;;;;;;;;;
2021/10/31 18:30:08;;;;;;;;;;;;;;;;;;;;;
2021/10/31 18:32:49;;;;;;;58.93;56.73;;;16.40;90.70;;;;;;5953711;23;20473;-83
2021/10/31 18:35:26;;;;;;;56.10;54.03;;;16.50;90.70;;;;;;6009327;23;20460;-83
2021/10/31 18:38:03;;;;;;;43.73;41.93;;;16.40;90.60;;;;;;6009095;23;20456;-82
2021/10/31 18:41:01;;;;;;;24.10;22.60;;;16.40;90.70;;;;;;6018426;23;20512;-83
2021/10/31 18:43:45;;;;;;;22.30;21.30;;;16.40;90.20;;;;;;6142829;23;20544;-83
2021/10/31 18:46:12;;;;;;;23.13;22.03;;;16.60;90.00;;;;;;6164817;23;20483;-82
2021/10/31 18:48:39;;;;;;;17.80;17.00;;;16.60;89.50;;;;;;6166291;23;20871;-82
2021/10/31 18:51:10;;;;;;;19.93;18.90;;;16.70;88.20;;;;;;6156132;23;20401;-82
2021/10/31 18:53:36;;;;;;;14.30;13.60;;;16.70;88.30;;;;;;6156610;23;20513;-82
2021/10/31 18:56:21;;;;;;;11.87;11.10;;;16.80;87.40;;;;;;6156425;23;20402;-82
2021/10/31 18:58:50;;;;;;;8.07;7.57;;;16.80;86.10;;;;;;6156388;23;20892;-81
2021/10/31 19:01:19;;;;;;;8.40;7.80;;;16.80;86.30;;;;;;6164395;23;20889;-82
2021/10/31 19:03:46;;;;;;;6.83;6.13;;;16.90;85.60;;;;;;6156369;23;20429;-82
2021/10/31 19:06:16;;;;;;;7.17;6.57;;;16.90;85.80;;;;;;6156206;23;20414;-82
2021/10/31 19:09:17;;;;;;;;;;;;;;;;;;;;;
2021/10/31 19:11:54;;;;;;;20.93;19.90;;;16.70;90.30;;;;;;6142684;23;20460;-83
2021/10/31 19:14:22;;;;;;;153.47;148.40;;;16.50;91.20;;;;;;6170302;23;20441;-81
2021/10/31 19:16:49;;;;;;;197.33;189.67;;;16.30;94.70;;;;;;6184219;23;20403;-80
2021/10/31 19:19:16;;;;;;;423.57;409.50;;;14.60;99.90;;;;;;6185889;23;20591;-81
2021/10/31 19:21:44;;;;;;;520.73;501.37;;;14.30;99.90;;;;;;6185933;23;20467;-82
2021/10/31 19:24:19;;;;;;;644.53;617.63;;;13.60;99.90;;;;;;6195648;23;20436;-82
2021/10/31 19:26:57;;;;;;;695.97;662.23;;;13.00;99.90;;;;;;6195662;23;20922;-78
2021/10/31 19:29:47;;;;;;;;;;;;;;;;;;;;;
2021/10/31 19:32:14;;;;;;;690.53;656.07;;;13.00;99.90;;;;;;6189282;23;20417;-82
2021/10/31 19:34:43;;;;;;;714.90;676.33;;;12.70;99.90;;;;;;6185737;23;20408;-81
2021/10/31 19:37:33;;;;;;;612.83;587.73;;;12.30;99.90;;;;;;6185765;23;20408;-82
2021/10/31 19:40:06;;;;;;;681.13;648.77;;;12.00;99.90;;;;;;6185395;23;20397;-81
2021/10/31 19:42:37;;;;;;;650.33;621.73;;;12.10;99.90;;;;;;6185770;23;20491;-82
2021/10/31 19:45:05;;;;;;;716.57;674.77;;;11.80;99.90;;;;;;6195320;23;20409;-82
2021/10/31 19:47:33;;;;;;;707.03;664.53;;;11.80;99.90;;;;;;6184331;23;20900;-83
2021/10/31 19:50:02;;;;;;;721.10;673.50;;;11.40;99.90;;;;;;6185821;23;20402;-84
2021/10/31 19:52:30;;;;;;;704.50;659.70;;;11.40;99.90;;;;;;6185786;23;20409;-83
2021/10/31 19:54:58;;;;;;;731.67;681.43;;;11.40;99.90;;;;;;6185749;23;20405;-83
2021/10/31 19:57:25;;;;;;;717.03;662.83;;;11.40;99.90;;;;;;6185552;23;20406;-83
2021/10/31 19:59:53;;;;;;;703.47;650.50;;;11.30;99.90;;;;;;6185000;23;20885;-84
2021/10/31 20:02:21;;;;;;;721.37;665.47;;;11.20;99.90;;;;;;6183901;23;20893;-84
2021/10/31 20:04:48;;;;;;;712.20;655.27;;;11.00;99.90;;;;;;6185693;23;20488;-84
2021/10/31 20:07:16;;;;;;;738.23;675.77;;;11.10;99.90;;;;;;6185744;23;20393;-84
2021/10/31 20:09:46;;;;;;;749.87;685.70;;;11.10;99.90;;;;;;6195261;23;20401;-84
2021/10/31 20:12:13;;;;;;;745.90;683.10;;;11.30;99.90;;;;;;6185346;23;20464;-84
2021/10/31 20:14:40;;;;;;;756.40;691.70;;;11.00;99.90;;;;;;6195170;23;20491;-85
2021/10/31 20:17:36;;;;;;;799.00;728.40;;;11.10;99.90;;;;;;6183967;23;20488;-84
2021/10/31 20:20:13;;;;;;;824.47;750.17;;;11.20;99.90;;;;;;6185207;23;20961;-84
2021/10/31 20:23:11;;;;;;;830.80;754.20;;;11.00;99.90;;;;;;6194978;23;20822;-84
2021/10/31 20:26:06;;;;;;;811.07;734.97;;;11.00;99.90;;;;;;6113495;23;20483;-85
2021/10/31 20:28:56;;;;;;;813.90;736.30;;;11.10;99.90;;;;;;6182409;23;20449;-84
2021/10/31 20:31:33;;;;;;;;;;;;;;;;;;;;;
2021/10/31 20:34:18;;;;;;;831.60;751.13;;;11.40;99.90;;;;;;6195270;23;20401;-84
2021/10/31 20:37:05;;;;;;;809.07;730.30;;;11.30;99.90;;;;;;6173443;23;20745;-84
2021/10/31 20:39:40;;;;;;;796.13;719.33;;;11.00;99.90;;;;;;6185353;23;20443;-85
2021/10/31 20:42:11;;;;;;;788.10;712.73;;;11.10;99.90;;;;;;6185443;23;20407;-84
2021/10/31 20:44:44;;;;;;;774.57;700.63;;;11.30;99.90;;;;;;6185382;23;20448;-86
2021/10/31 20:48:00;;;;;;;;;;;;;;;;;;;;;
2021/10/31 20:50:45;;;;;;;742.90;674.13;;;11.20;99.90;;;;;;6010861;23;20426;-85
2021/10/31 20:53:23;;;;;;;753.87;681.77;;;11.30;99.90;;;;;;6185217;23;20401;-84
2021/10/31 20:55:57;;;;;;;756.60;684.70;;;11.30;99.90;;;;;;6194805;23;20409;-82
2021/10/31 20:58:25;;;;;;;753.23;682.63;;;11.10;99.90;;;;;;6194655;23;20434;-82
2021/10/31 21:00:59;;;;;;;753.40;683.00;;;11.40;99.90;;;;;;6195241;23;20413;-84
2021/10/31 21:04:14;;;;;;;749.23;680.20;;;11.20;99.90;;;;;;6184891;23;20885;-84
2021/10/31 21:07:01;;;;;;;;;;;;;;;;;;;;;
2021/10/31 21:09:31;;;;;;;744.87;679.03;;;11.20;99.90;;;;;;6166329;23;20409;-85
2021/10/31 21:12:11;;;;;;;741.20;675.30;;;11.30;99.90;;;;;;6195202;23;20536;-84
2021/10/31 21:14:57;;;;;;;;;;;;;;;;;;;;;
2021/10/31 21:17:26;;;;;;;733.57;671.07;;;11.10;99.90;;;;;;6069171;23;20733;-84
2021/10/31 21:20:29;;;;;;;;;;;;;;;;;;;;;
2021/10/31 21:23:49;;;;;;;;;;;;;;;;;;;;;
2021/10/31 21:26:39;;;;;;;;;;;;;;;;;;;;;
2021/10/31 21:29:35;;;;;;;727.87;669.07;;;11.00;99.90;;;;;;6105354;23;21026;-84
2021/10/31 21:32:14;;;;;;;720.20;661.37;;;11.20;99.90;;;;;;5979922;23;20423;-85
2021/10/31 21:34:56;;;;;;;;;;;;;;;;;;;;;
2021/10/31 21:37:28;;;;;;;746.37;686.97;;;11.10;99.90;;;;;;6055397;23;20414;-85
2021/10/31 21:40:05;;;;;;;745.10;685.10;;;11.20;99.90;;;;;;6095148;23;20447;-85
2021/10/31 21:42:54;;;;;;;737.73;678.33;;;11.20;99.90;;;;;;6095443;23;20435;-84
2021/10/31 21:45:53;;;;;;;741.00;682.60;;;11.00;99.90;;;;;;6053937;23;20455;-85
2021/10/31 21:48:46;;;;;;;753.70;693.50;;;11.00;99.90;;;;;;5980479;24;20476;-85